Time;durP1;ratioP1;P1;durP2;ratioP2;P2;SDS_P1;SDS_P2;PMS_P1;PMS_P2;Temp;Humidity;BMP_temperature;BMP_pressure;BME280_temperature;BME280_humidity;BME280_pressure;Samples;Min_cycle;Max_cycle;Signal;HPM_P1;HPM_P2
2022/06/13 00:00:54;;;;;;;4.32;3.92;;;;;;;20.60;66.02;99147.81;5033482;28;20029;-89
2022/06/13 00:03:19;;;;;;;4.22;3.47;;;;;;;18.96;66.14;98882.78;5032543;28;20465;-88
2022/06/13 00:05:45;;;;;;;4.18;3.85;;;;;;;20.68;65.96;99167.19;5032337;28;20025;-88
2022/06/13 00:08:10;;;;;;;4.45;3.63;;;;;;;20.27;66.09;99092.47;5033517;28;20104;-88
2022/06/13 00:10:36;;;;;;;4.32;3.92;;;;;;;20.44;65.94;99121.09;5032373;28;20483;-89
2022/06/13 00:13:02;;;;;;;6.18;3.42;;;;;;;20.66;66.09;99148.66;5032406;28;20501;-89
2022/06/13 00:15:28;;;;;;;4.38;3.40;;;;;;;20.89;65.98;99190.50;5032174;28;20033;-88
2022/06/13 00:17:53;;;;;;;4.25;3.85;;;;;;;20.08;65.93;99082.34;5031960;28;20509;-88
2022/06/13 00:20:19;;;;;;;4.47;3.60;;;;;;;20.66;66.22;99172.81;5031965;28;20068;-88
2022/06/13 00:22:44;;;;;;;5.13;4.18;;;;;;;20.34;66.16;99118.28;5032124;28;20087;-88
2022/06/13 00:25:10;;;;;;;6.85;4.22;;;;;;;20.43;66.31;99144.41;5032573;28;20017;-87
2022/06/13 00:27:36;;;;;;;5.95;4.00;;;;;;;20.31;66.18;99144.53;5031895;28;20025;-89
2022/06/13 00:30:05;;;;;;;6.20;4.00;;;;;;;19.82;66.23;99046.38;5033304;28;20025;-88
2022/06/13 00:32:30;;;;;;;4.80;4.20;;;;;;;20.28;66.47;99128.13;5032068;28;20025;-87
2022/06/13 00:34:55;;;;;;;6.00;4.82;;;;;;;20.35;66.46;99155.56;5031990;28;20506;-88
2022/06/13 00:37:21;;;;;;;4.28;3.90;;;;;;;20.44;66.74;99161.31;5031801;28;20017;-88
2022/06/13 00:39:46;;;;;;;4.78;4.30;;;;;;;20.36;66.72;99161.72;5031523;28;20021;-87
2022/06/13 00:42:18;;;;;;;5.00;4.47;;;;;;;20.77;66.83;99214.78;5031439;28;20025;-88
2022/06/13 00:45:02;;;;;;;8.07;4.03;;;;;;;20.14;66.87;99121.53;5031543;28;20429;-88
2022/06/13 00:47:28;;;;;;;7.22;4.55;;;;;;;20.00;66.96;99103.13;5031323;28;20029;-88
2022/06/13 00:49:53;;;;;;;5.43;4.32;;;;;;;20.26;67.10;99151.69;5032556;28;20033;-88
2022/06/13 00:52:25;;;;;;;6.53;4.50;;;;;;;20.07;67.43;99135.13;5031320;28;20025;-88
2022/06/13 00:54:53;;;;;;;6.30;4.53;;;;;;;20.55;67.28;99203.28;5031155;28;20132;-88
2022/06/13 00:57:22;;;;;;;5.05;3.72;;;;;;;20.73;67.30;99210.19;5031475;28;20028;-87
2022/06/13 00:59:51;;;;;;;7.53;4.97;;;;;;;20.69;67.50;99201.81;5031598;28;20033;-88
2022/06/13 01:02:16;;;;;;;5.28;4.78;;;;;;;20.63;67.47;99197.47;5032546;28;20028;-88
2022/06/13 01:04:42;;;;;;;5.88;4.15;;;;;;;20.44;67.87;99190.81;5032479;28;20021;-88
2022/06/13 01:07:10;;;;;;;5.40;4.60;;;;;;;20.08;67.73;99142.09;5031379;28;20021;-88
2022/06/13 01:12:24;;;;;;;4.47;4.07;;;;;;;19.77;67.93;99103.38;5032495;28;20032;-88
2022/06/13 01:15:05;;;;;;;5.10;4.38;;;;;;;20.51;67.65;99186.06;5031093;28;20034;-88
2022/06/13 01:18:12;;;;;;;4.60;4.18;;;;;;;20.50;67.79;99189.81;5031271;28;20140;-89
2022/06/13 01:20:46;;;;;;;5.82;3.97;;;;;;;20.50;67.53;99187.13;5026628;28;20045;-88
2022/06/13 01:23:24;;;;;;;4.65;4.25;;;;;;;20.48;67.41;99192.75;5032295;28;20087;-88
2022/06/13 01:26:09;;;;;;;4.95;3.65;;;;;;;20.44;67.31;99180.91;5031907;28;20033;-88
2022/06/13 01:29:00;;;;;;;4.28;3.72;;;;;;;20.52;67.32;99185.00;5030707;28;20461;-88
2022/06/13 01:31:37;;;;;;;4.18;3.60;;;;;;;20.51;67.08;99183.38;5008108;28;20095;-88
2022/06/13 01:34:02;;;;;;;4.18;3.78;;;;;;;20.53;67.02;99186.63;5030728;28;20030;-88
2022/06/13 01:37:06;;;;;;;4.32;3.58;;;;;;;20.52;66.67;99190.38;5030818;28;20028;-88
2022/06/13 01:39:53;;;;;;;3.90;3.47;;;;;;;20.48;66.63;99187.38;4973933;28;20555;-89
2022/06/13 01:42:48;;;;;;;6.30;3.78;;;;;;;20.47;66.63;99183.06;4973925;28;20038;-88
2022/06/13 01:45:26;;;;;;;6.15;3.85;;;;;;;20.38;66.23;99186.41;5019221;28;20038;-88
2022/06/13 01:47:57;;;;;;;9.57;3.78;;;;;;;20.44;66.46;99183.56;5030286;28;20040;-88
2022/06/13 01:50:47;;;;;;;6.47;4.10;;;;;;;20.46;66.27;99184.13;5037846;28;20483;-88
2022/06/13 01:53:21;;;;;;;4.22;3.83;;;;;;;20.48;66.27;99182.00;5043149;28;20045;-87
2022/06/13 01:55:58;;;;;;;4.05;3.75;;;;;;;20.30;66.13;99159.00;5038331;28;20133;-88
2022/06/13 01:58:29;;;;;;;3.90;3.50;;;;;;;20.10;66.04;99137.31;5030391;28;20021;-88
2022/06/13 02:01:04;;;;;;;5.10;3.97;;;;;;;19.88;66.06;99088.22;5030374;28;20028;-87
2022/06/13 02:03:39;;;;;;;7.28;3.80;;;;;;;20.18;66.26;99144.09;5030353;28;20029;-88
2022/06/13 02:06:13;;;;;;;5.13;3.63;;;;;;;19.83;66.09;99086.31;5030165;28;20021;-88
2022/06/13 02:08:44;;;;;;;4.82;3.25;;;;;;;19.89;65.82;99106.75;5030076;28;20035;-88
2022/06/13 02:11:15;;;;;;;4.35;3.70;;;;;;;19.85;65.83;99104.81;5035051;28;20106;-87
2022/06/13 02:13:49;;;;;;;3.70;3.35;;;;;;;20.40;65.84;99171.72;5036821;28;20030;-87
2022/06/13 02:16:24;;;;;;;5.93;3.97;;;;;;;20.48;65.44;99190.06;5037183;28;20091;-88
2022/06/13 02:18:55;;;;;;;4.60;3.72;;;;;;;20.48;65.09;99189.25;5037051;28;20032;-88
2022/06/13 02:21:24;;;;;;;;;;;;;;;20.33;65.40;99187.19;5037266;28;20032;-87
2022/06/13 02:23:55;;;;;;;4.18;3.53;;;;;;;19.95;64.98;99112.97;5038165;28;20451;-88
2022/06/13 02:26:29;;;;;;;5.65;3.28;;;;;;;19.77;64.85;99107.91;5036725;28;20026;-88
2022/06/13 02:28:59;;;;;;;5.57;3.50;;;;;;;20.11;64.66;99135.44;5037751;28;20033;-89
2022/06/13 02:31:43;;;;;;;4.03;3.53;;;;;;;19.96;64.69;99111.91;5036678;28;20025;-88
2022/06/13 02:34:21;;;;;;;4.80;3.22;;;;;;;20.18;64.32;99130.69;5038025;28;20084;-88
2022/06/13 02:37:01;;;;;;;3.30;3.00;;;;;;;20.11;64.41;99149.66;5036872;28;20017;-88
2022/06/13 02:40:00;;;;;;;4.28;3.35;;;;;;;20.52;63.98;99187.69;5036669;28;20082;-88
2022/06/13 02:42:38;;;;;;;4.68;3.25;;;;;;;20.55;64.22;99184.50;5036741;28;20094;-88
2022/06/13 02:45:09;;;;;;;3.35;3.03;;;;;;;20.19;64.23;99135.81;5037989;28;20414;-89
2022/06/13 02:47:43;;;;;;;4.30;3.53;;;;;;;20.27;64.16;99156.00;5037697;28;20025;-88
2022/06/13 02:50:30;;;;;;;3.92;3.22;;;;;;;20.57;64.01;99198.47;5037751;28;20060;-88
2022/06/13 02:53:06;;;;;;;6.00;3.65;;;;;;;20.57;64.27;99187.75;5026309;28;20414;-88
2022/06/13 02:55:41;;;;;;;3.83;3.30;;;;;;;20.56;64.09;99199.53;5036470;28;20060;-88
2022/06/13 02:58:19;;;;;;;3.47;3.17;;;;;;;20.43;63.99;99183.81;5038003;28;20025;-87
2022/06/13 03:00:58;;;;;;;3.70;3.40;;;;;;;20.61;63.81;99200.41;5036414;28;20486;-88
2022/06/13 03:03:38;;;;;;;6.68;3.10;;;;;;;20.67;63.71;99205.81;5036399;28;20104;-88
2022/06/13 03:06:33;;;;;;;3.65;3.15;;;;;;;20.68;63.31;99208.25;5037503;28;20029;-89
2022/06/13 03:09:08;;;;;;;5.70;3.50;;;;;;;20.62;63.44;99207.38;5036577;28;20025;-88
2022/06/13 03:11:36;;;;;;;3.58;2.90;;;;;;;20.62;63.68;99212.75;5036330;28;20033;-88
2022/06/13 03:14:02;;;;;;;4.20;3.10;;;;;;;20.65;63.60;99205.25;5036198;28;20039;-87
2022/06/13 03:16:47;;;;;;;3.80;3.35;;;;;;;20.67;63.58;99209.31;5036416;28;20431;-88
2022/06/13 03:19:23;;;;;;;4.10;3.38;;;;;;;20.46;63.33;99169.91;5037740;28;20025;-89
2022/06/13 03:21:59;;;;;;;3.85;3.42;;;;;;;20.31;63.39;99155.25;5035733;28;20025;-88
2022/06/13 03:24:46;;;;;;;4.20;3.42;;;;;;;20.69;63.38;99201.81;5033300;28;20083;-88
2022/06/13 03:27:38;;;;;;;5.22;3.35;;;;;;;20.73;63.51;99205.63;5032963;28;20135;-88
2022/06/13 03:30:14;;;;;;;3.35;2.85;;;;;;;20.29;63.30;99141.28;5029326;28;20033;-88
2022/06/13 03:33:39;;;;;;;5.90;3.65;;;;;;;20.42;63.38;99150.03;5034070;28;20041;-87
2022/06/13 03:35:32;;;;;;;;;;;;;;;20.63;63.71;99206.31;5034426;28;20032;-88
2022/06/13 03:37:58;;;;;;;3.40;3.10;;;;;;;20.34;63.72;99140.53;5032788;28;20325;-88
2022/06/13 03:40:28;;;;;;;4.07;2.88;;;;;;;20.80;63.32;99211.59;5032712;28;20449;-88
2022/06/13 03:42:57;;;;;;;4.80;3.50;;;;;;;20.77;63.44;99197.88;5032799;28;20025;-88
2022/06/13 03:45:29;;;;;;;3.75;3.00;;;;;;;20.76;63.38;99199.75;5032977;28;20461;-87
2022/06/13 03:48:02;;;;;;;5.25;3.38;;;;;;;20.03;63.24;99080.38;5032550;28;20029;-88
2022/06/13 03:50:42;;;;;;;4.38;3.38;;;;;;;20.74;63.38;99187.66;5032464;28;20415;-87
2022/06/13 03:53:39;;;;;;;5.78;3.60;;;;;;;20.82;63.10;99201.47;5032469;28;20064;-88
2022/06/13 03:56:28;;;;;;;3.75;3.35;;;;;;;20.07;63.24;99094.13;5032276;28;20045;-88
2022/06/13 03:59:00;;;;;;;5.72;3.92;;;;;;;20.51;63.15;99156.56;5033531;28;20033;-88
2022/06/13 04:01:48;;;;;;;5.15;3.42;;;;;;;20.79;62.90;99196.56;5033871;28;20022;-88
2022/06/13 04:04:26;;;;;;;6.63;3.58;;;;;;;20.54;63.02;99169.47;5032210;28;20032;-88
2022/06/13 04:06:54;;;;;;;5.30;3.65;;;;;;;20.10;63.35;99093.63;5033640;28;20456;-87
2022/06/13 04:09:34;;;;;;;5.68;3.88;;;;;;;20.67;62.87;99182.50;5032190;28;20108;-87
2022/06/13 04:12:29;;;;;;;3.95;3.58;;;;;;;20.75;63.33;99195.44;5032122;28;20032;-88
2022/06/13 04:15:04;;;;;;;4.80;3.70;;;;;;;20.79;63.37;99199.25;5031979;28;20059;-88
2022/06/13 04:17:48;;;;;;;6.45;4.00;;;;;;;20.84;63.25;99191.28;5032211;28;20072;-88
2022/06/13 04:20:30;;;;;;;7.22;3.83;;;;;;;20.87;63.17;99189.97;5032088;28;20025;-88
2022/06/13 04:23:35;;;;;;;4.32;3.90;;;;;;;20.85;63.31;99200.13;5032291;28;20456;-88
2022/06/13 04:26:26;;;;;;;4.63;3.40;;;;;;;20.85;63.03;99184.84;5012564;28;20110;-87
2022/06/13 04:29:04;;;;;;;4.70;3.60;;;;;;;20.58;63.22;99147.25;5032784;28;20053;-88
2022/06/13 04:31:32;;;;;;;3.67;3.38;;;;;;;20.65;63.09;99168.50;5032104;28;20128;-88
2022/06/13 04:34:15;;;;;;;5.32;4.00;;;;;;;20.42;63.13;99112.50;5033047;28;20025;-87
2022/06/13 04:36:43;;;;;;;6.65;4.13;;;;;;;20.61;62.95;99149.44;5033047;28;20036;-88
2022/06/13 04:39:13;;;;;;;4.53;3.55;;;;;;;20.88;63.05;99191.59;5031692;28;20453;-88
2022/06/13 04:41:42;;;;;;;7.25;4.20;;;;;;;20.10;62.71;99086.38;5033050;28;20483;-87
2022/06/13 04:44:17;;;;;;;4.53;4.10;;;;;;;20.37;62.86;99117.78;5031721;28;20063;-87
2022/06/13 04:46:44;;;;;;;8.30;4.00;;;;;;;20.39;62.68;99116.47;5031720;28;20482;-88
2022/06/13 04:49:24;;;;;;;7.18;4.50;;;;;;;20.54;62.67;99121.19;5031462;28;20029;-88
2022/06/13 04:51:52;;;;;;;4.68;3.88;;;;;;;20.80;62.82;99192.00;5031584;28;20025;-87
2022/06/13 04:54:33;;;;;;;4.22;3.80;;;;;;;20.73;62.60;99175.28;5031411;28;20025;-88
2022/06/13 04:57:00;;;;;;;4.65;4.13;;;;;;;21.07;62.88;99224.25;5031326;28;20041;-88
2022/06/13 04:59:26;;;;;;;4.95;4.40;;;;;;;20.60;62.63;99149.69;5031463;28;20029;-88
2022/06/13 05:01:53;;;;;;;5.55;4.15;;;;;;;20.92;62.76;99198.88;5031077;28;20026;-88
2022/06/13 05:04:24;;;;;;;5.63;4.90;;;;;;;21.10;62.71;99213.81;5032520;28;20032;-88
2022/06/13 05:06:52;;;;;;;6.03;4.72;;;;;;;20.49;62.80;99124.63;5031323;28;20021;-88
2022/06/13 05:09:24;;;;;;;5.40;4.03;;;;;;;20.86;62.79;99173.03;5030960;28;20049;-88
2022/06/13 05:11:53;;;;;;;7.28;3.85;;;;;;;20.93;62.71;99180.91;5031113;28;20517;-88
2022/06/13 05:14:24;;;;;;;9.48;4.18;;;;;;;20.72;62.53;99160.25;5030874;28;20025;-87
2022/06/13 05:17:08;;;;;;;;;;;;;;;21.12;63.24;99243.88;5031574;28;20014;-88
2022/06/13 05:19:49;;;;;;;4.65;4.28;;;;;;;20.68;63.11;99175.25;5032405;28;19929;-88
2022/06/13 05:22:17;;;;;;;8.85;4.88;;;;;;;21.28;63.01;99244.88;5026824;28;20029;-87
2022/06/13 05:25:20;;;;;;;6.70;4.85;;;;;;;21.32;62.92;99235.22;5011331;28;20462;-87
2022/06/13 05:27:46;;;;;;;7.80;5.63;;;;;;;21.23;63.15;99229.53;5022365;28;20529;-88
2022/06/13 05:30:14;;;;;;;5.30;4.50;;;;;;;20.40;62.60;99090.47;5030614;28;20049;-88
2022/06/13 05:32:40;;;;;;;6.00;4.95;;;;;;;21.48;62.60;99225.44;5028973;28;20022;-87
2022/06/13 05:35:06;;;;;;;6.15;4.80;;;;;;;21.48;62.68;99215.50;5032036;28;20499;-88
2022/06/13 05:37:32;;;;;;;5.72;4.80;;;;;;;21.40;62.30;99190.97;5025483;28;20068;-88
2022/06/13 05:39:58;;;;;;;7.20;4.70;;;;;;;20.94;62.34;99105.50;5023376;28;20087;-87
2022/06/13 05:42:23;;;;;;;6.00;4.65;;;;;;;21.66;62.19;99208.13;5015122;28;20030;-88
2022/06/13 05:44:49;;;;;;;6.47;4.57;;;;;;;21.84;62.01;99227.31;5015153;28;20018;-86
2022/06/13 05:47:18;;;;;;;7.68;5.10;;;;;;;21.93;61.48;99219.59;5020653;28;20037;-88
2022/06/13 05:49:44;;;;;;;5.18;4.78;;;;;;;21.70;61.05;99182.34;5015711;28;20032;-86
2022/06/13 05:52:11;;;;;;;5.38;4.30;;;;;;;21.16;61.02;99058.94;5030393;28;20032;-86
2022/06/13 05:54:37;;;;;;;7.47;4.22;;;;;;;22.19;60.85;99234.81;5021320;28;20408;-88
2022/06/13 05:57:03;;;;;;;4.78;4.13;;;;;;;22.22;60.53;99216.53;5010522;28;20117;-88
2022/06/13 05:59:29;;;;;;;6.10;4.30;;;;;;;21.90;60.29;99163.66;5017428;28;20086;-87
2022/06/13 06:01:54;;;;;;;6.88;4.15;;;;;;;21.71;60.41;99141.78;5010791;28;20061;-88
2022/06/13 06:04:20;;;;;;;6.75;5.00;;;;;;;22.07;60.30;99193.88;5019663;28;20030;-89
2022/06/13 06:06:45;;;;;;;8.02;5.57;;;;;;;22.33;60.75;99220.91;5018322;28;20026;-88
2022/06/13 06:09:13;;;;;;;8.23;5.53;;;;;;;22.29;60.79;99206.34;5015501;28;20051;-87
2022/06/13 06:11:38;;;;;;;6.40;5.28;;;;;;;22.27;60.84;99221.94;5030040;28;20026;-88
2022/06/13 06:14:03;;;;;;;6.07;5.10;;;;;;;22.12;60.95;99199.28;5014161;28;20026;-89
2022/06/13 06:16:29;;;;;;;7.57;4.70;;;;;;;22.13;61.01;99202.78;5021830;28;20461;-87
2022/06/13 06:18:55;;;;;;;6.30;5.35;;;;;;;21.72;61.02;99153.34;5010859;28;20022;-88
2022/06/13 06:21:21;;;;;;;12.90;5.20;;;;;;;22.20;60.91;99209.53;5029201;28;20083;-88
2022/06/13 06:23:47;;;;;;;7.93;4.75;;;;;;;21.88;61.02;99171.97;5020418;28;20022;-88
2022/06/13 06:26:15;;;;;;;6.53;4.97;;;;;;;22.48;60.58;99226.38;5022674;28;20401;-88
2022/06/13 06:28:40;;;;;;;7.07;4.93;;;;;;;22.58;60.68;99242.53;5010291;28;20430;-88
2022/06/13 06:31:06;;;;;;;7.20;4.60;;;;;;;22.50;60.82;99218.84;5013212;28;20018;-88
2022/06/13 06:33:32;;;;;;;9.00;5.43;;;;;;;21.66;60.71;99096.09;5012451;28;20112;-88
2022/06/13 06:35:58;;;;;;;7.03;5.78;;;;;;;22.60;60.67;99234.22;5029062;28;20021;-87
2022/06/13 06:38:25;;;;;;;9.00;5.93;;;;;;;22.83;60.88;99248.03;5009379;28;20033;-88
2022/06/13 06:40:51;;;;;;;6.53;5.93;;;;;;;22.88;60.83;99267.97;5013456;28;20439;-88
2022/06/13 06:43:17;;;;;;;5.68;5.18;;;;;;;22.48;60.65;99202.16;5029751;28;20081;-88
2022/06/13 06:45:43;;;;;;;6.00;5.03;;;;;;;22.76;60.86;99249.31;5017780;28;20523;-88
2022/06/13 06:48:23;;;;;;;5.70;5.00;;;;;;;22.94;60.75;99242.69;5015035;28;20040;-87
2022/06/13 06:50:49;;;;;;;5.32;4.72;;;;;;;22.64;60.84;99181.47;5010759;28;20029;-88
2022/06/13 06:53:22;;;;;;;8.48;5.43;;;;;;;23.19;60.86;99250.00;5014954;28;20033;-88
2022/06/13 07:01:18;;;;;;;7.40;5.60;;;;;;;22.95;60.65;99198.53;5019095;28;20068;-88
2022/06/13 07:03:44;;;;;;;11.48;5.57;;;;;;;23.15;60.50;99222.81;5014330;28;20060;-88
2022/06/13 07:06:11;;;;;;;6.32;5.72;;;;;;;23.12;60.30;99191.03;5018677;28;20487;-88
2022/06/13 07:08:36;;;;;;;11.07;6.90;;;;;;;22.58;60.16;99097.25;5034561;28;20026;-88
2022/06/13 07:13:50;;;;;;;8.70;6.60;;;;;;;23.41;59.81;99212.84;5021507;28;20442;-88
2022/06/13 07:16:15;;;;;;;7.00;6.30;;;;;;;23.36;59.61;99188.59;5026504;28;20018;-88
2022/06/13 07:18:41;;;;;;;10.02;6.45;;;;;;;23.79;59.61;99262.75;5016188;28;20499;-88
2022/06/13 07:21:08;;;;;;;7.38;5.03;;;;;;;23.88;59.41;99277.28;5032924;28;20561;-88
2022/06/13 07:23:33;;;;;;;7.43;5.50;;;;;;;23.45;59.13;99187.78;5023304;28;20029;-88
2022/06/13 07:25:59;;;;;;;7.03;5.43;;;;;;;23.27;59.15;99165.97;5031536;28;20386;-87
2022/06/13 07:28:25;;;;;;;11.15;5.22;;;;;;;23.92;59.27;99258.69;5018838;28;20099;-87
2022/06/13 07:30:51;;;;;;;5.85;5.03;;;;;;;23.28;59.19;99151.44;5032119;28;20029;-88
2022/06/13 07:33:18;;;;;;;6.53;5.93;;;;;;;24.02;58.95;99255.97;5032129;28;20022;-86
2022/06/13 07:35:43;;;;;;;6.53;5.85;;;;;;;23.96;58.53;99227.41;5037610;28;20089;-89
2022/06/13 07:38:19;;;;;;;7.47;5.47;;;;;;;24.43;58.20;99304.47;5035811;28;20025;-87
2022/06/13 07:40:51;;;;;;;8.73;5.88;;;;;;;23.85;58.06;99188.84;5032454;28;20024;-87
2022/06/13 07:43:26;;;;;;;6.07;5.47;;;;;;;24.20;57.79;99241.09;5032065;28;21267;-87
2022/06/13 07:45:52;;;;;;;5.78;5.18;;;;;;;24.52;57.80;99287.41;5017280;28;20030;-87
2022/06/13 07:48:18;;;;;;;5.78;4.43;;;;;;;24.30;57.90;99282.38;5012092;28;20056;-87
2022/06/13 07:50:44;;;;;;;5.97;5.25;;;;;;;23.76;58.05;99185.06;5019626;28;20025;-87
2022/06/13 07:53:09;;;;;;;7.95;5.53;;;;;;;23.63;58.41;99159.50;5013347;28;20533;-87
2022/06/13 07:55:36;;;;;;;11.73;6.90;;;;;;;24.27;58.35;99279.41;5023014;28;20046;-88
2022/06/13 07:58:02;;;;;;;7.90;6.47;;;;;;;23.46;58.54;99164.34;5013642;28;20029;-86
2022/06/13 08:00:35;;;;;;;10.07;7.43;;;;;;;24.24;58.23;99309.59;5016865;28;20507;-88
2022/06/13 08:03:01;;;;;;;7.80;6.70;;;;;;;24.25;58.96;99308.53;5031214;28;20123;-88
2022/06/13 08:05:28;;;;;;;10.82;7.50;;;;;;;23.94;58.93;99254.63;5031717;28;20520;-87
2022/06/13 08:07:54;;;;;;;8.75;6.25;;;;;;;24.25;59.24;99301.22;5032839;28;20034;-88
2022/06/13 08:10:20;;;;;;;9.23;6.30;;;;;;;23.84;59.13;99230.38;5030865;28;20421;-88
2022/06/13 08:12:45;;;;;;;9.32;6.43;;;;;;;24.09;58.91;99278.88;5025242;28;20084;-88
2022/06/13 08:15:13;;;;;;;5.68;4.82;;;;;;;24.29;59.22;99310.44;5028070;28;20033;-87
2022/06/13 08:17:39;;;;;;;8.43;6.60;;;;;;;24.28;59.43;99299.91;5027969;28;20029;-88
2022/06/13 08:20:07;;;;;;;9.50;7.03;;;;;;;24.08;59.58;99269.16;5031233;28;20494;-88
2022/06/13 08:22:33;;;;;;;9.57;6.90;;;;;;;23.91;59.31;99247.09;5014717;28;20021;-87
2022/06/13 08:24:59;;;;;;;8.48;5.50;;;;;;;24.17;58.63;99271.31;5015684;28;20026;-88
2022/06/13 08:27:26;;;;;;;10.15;6.40;;;;;;;23.60;58.59;99189.69;5012983;28;20186;-88
2022/06/13 08:29:52;;;;;;;7.53;6.18;;;;;;;24.06;58.30;99246.25;5015946;28;20029;-89
2022/06/13 08:32:17;;;;;;;8.30;6.25;;;;;;;24.24;58.14;99280.72;5031864;28;20176;-88
2022/06/13 08:34:43;;;;;;;9.65;6.97;;;;;;;23.87;58.05;99212.84;5027310;28;20449;-88
2022/06/13 08:37:08;;;;;;;8.00;5.93;;;;;;;24.02;57.87;99204.72;5028899;28;20033;-88
2022/06/13 08:39:33;;;;;;;8.05;6.10;;;;;;;23.74;57.54;99174.56;5028951;28;20022;-88
2022/06/13 08:42:17;;;;;;;8.23;5.30;;;;;;;24.11;56.47;99254.31;5013957;28;20164;-88
2022/06/13 08:44:57;;;;;;;8.18;6.40;;;;;;;24.75;57.63;99306.81;5027958;28;20395;-89
2022/06/13 08:47:33;;;;;;;6.47;5.38;;;;;;;24.77;57.32;99310.03;5017369;28;20025;-88
2022/06/13 08:50:28;;;;;;;11.32;8.80;;;;;;;24.53;57.23;99258.56;5011220;28;20510;-89
2022/06/13 08:53:30;;;;;;;13.07;9.88;;;;;;;24.91;57.09;99300.25;5019453;28;20105;-88
2022/06/13 08:56:02;;;;;;;7.53;6.72;;;;;;;24.16;56.88;99189.56;5015040;28;20065;-88
2022/06/13 08:58:37;;;;;;;6.32;5.72;;;;;;;24.93;56.50;99303.47;5012408;28;20113;-87
2022/06/13 09:01:37;;;;;;;12.48;10.77;;;;;;;24.74;55.46;99264.69;5017565;28;20425;-88
2022/06/13 09:04:12;;;;;;;9.27;7.07;;;;;;;24.65;56.09;99245.56;5011271;28;20032;-87
2022/06/13 09:06:45;;;;;;;7.47;5.40;;;;;;;24.86;55.73;99248.97;5025021;28;20112;-87
2022/06/13 09:09:23;;;;;;;7.82;5.25;;;;;;;25.46;55.43;99298.34;5023686;28;20026;-88
2022/06/13 09:11:58;;;;;;;7.10;5.15;;;;;;;25.75;55.08;99301.13;5030555;28;20025;-87
2022/06/13 09:14:33;;;;;;;6.88;4.60;;;;;;;25.78;53.56;99251.88;5029349;28;20107;-86
2022/06/13 09:17:31;;;;;;;5.53;4.80;;;;;;;26.49;53.36;99311.53;5026262;28;20025;-87
2022/06/13 09:20:17;;;;;;;7.68;6.88;;;;;;;26.25;51.88;99264.66;5012605;28;20057;-85
2022/06/13 09:22:51;;;;;;;6.25;5.13;;;;;;;26.24;52.59;99246.81;5009869;28;20029;-85
2022/06/13 09:25:34;;;;;;;8.50;6.03;;;;;;;25.51;51.10;99069.31;5022626;28;20037;-87
2022/06/13 09:28:37;;;;;;;9.30;7.60;;;;;;;27.09;50.67;99297.56;5010196;28;20022;-84
2022/06/13 09:31:23;;;;;;;7.05;4.90;;;;;;;27.25;49.63;99290.81;5031801;28;20095;-86
2022/06/13 09:33:54;;;;;;;7.32;5.40;;;;;;;27.21;49.50;99262.69;5015514;28;20063;-87
2022/06/13 09:36:50;;;;;;;5.18;4.68;;;;;;;27.41;47.60;99296.81;5022170;28;20029;-87
2022/06/13 09:39:18;;;;;;;6.88;5.60;;;;;;;27.12;49.09;99251.69;5019447;28;20026;-86
2022/06/13 09:42:06;;;;;;;6.07;4.35;;;;;;;27.80;47.24;99308.16;5010236;28;20029;-87
2022/06/13 09:44:31;;;;;;;5.53;4.82;;;;;;;27.97;47.88;99313.03;5014816;28;20025;-87
2022/06/13 09:47:06;;;;;;;7.15;5.20;;;;;;;28.11;46.22;99303.00;5029344;28;20036;-86
2022/06/13 09:49:48;;;;;;;9.05;5.18;;;;;;;28.09;46.36;99302.50;5020143;28;20560;-86
2022/06/13 09:52:41;;;;;;;6.55;4.45;;;;;;;28.15;45.68;99311.34;5011264;28;20030;-87
2022/06/13 09:55:22;;;;;;;5.53;4.75;;;;;;;28.34;46.03;99292.31;5008649;28;20477;-86
2022/06/13 09:58:06;;;;;;;8.27;5.93;;;;;;;28.35;45.82;99280.34;5011782;28;20410;-86
2022/06/13 10:00:40;;;;;;;9.75;8.77;;;;;;;28.62;44.69;99290.41;5011511;28;20076;-86
2022/06/13 10:03:15;;;;;;;11.27;5.63;;;;;;;28.57;45.62;99294.03;5010096;28;20042;-87
2022/06/13 10:06:04;;;;;;;6.13;4.40;;;;;;;28.61;44.52;99297.75;5008930;28;20065;-87
2022/06/13 10:08:44;;;;;;;8.00;6.43;;;;;;;28.18;44.26;99257.25;5011141;28;20034;-86
2022/06/13 10:11:30;;;;;;;7.35;6.60;;;;;;;27.58;44.80;99206.81;5010187;28;20033;-86
2022/06/13 10:14:22;;;;;;;7.43;6.50;;;;;;;27.75;45.35;99280.31;5009988;28;20395;-87
2022/06/13 10:16:59;;;;;;;;;;;;;;;27.50;46.18;99289.66;5002590;28;20400;-86
2022/06/13 10:19:59;;;;;;;9.20;5.55;;;;;;;26.96;46.15;99235.94;5011591;28;19909;-87
2022/06/13 10:22:43;;;;;;;7.13;4.70;;;;;;;27.25;47.18;99293.53;5010005;28;20455;-86
2022/06/13 10:25:30;;;;;;;7.10;5.22;;;;;;;27.17;47.30;99292.28;5018157;28;20030;-87
2022/06/13 10:28:31;;;;;;;5.90;4.90;;;;;;;27.15;47.33;99286.34;5009565;28;20045;-87
2022/06/13 10:31:21;;;;;;;5.25;4.57;;;;;;;27.48;46.99;99294.53;5003722;28;20525;-86
2022/06/13 10:33:52;;;;;;;6.30;5.45;;;;;;;27.68;46.61;99296.97;5026983;28;20037;-86
2022/06/13 10:36:24;;;;;;;7.45;5.65;;;;;;;27.50;47.03;99236.22;5030871;28;20458;-86
2022/06/13 10:39:13;;;;;;;6.05;5.43;;;;;;;27.96;46.12;99287.00;5015294;28;20026;-87
2022/06/13 10:41:43;;;;;;;7.13;5.93;;;;;;;27.67;46.54;99238.41;5013844;28;20030;-86
2022/06/13 10:44:11;;;;;;;9.02;5.53;;;;;;;28.32;45.97;99291.81;5014123;28;20041;-87
2022/06/13 10:46:58;;;;;;;6.75;6.05;;;;;;;27.98;45.35;99210.72;5031196;28;20486;-87
2022/06/13 10:49:31;;;;;;;7.10;5.75;;;;;;;28.51;45.55;99292.53;5033078;28;20449;-87
2022/06/13 10:52:03;;;;;;;6.00;5.25;;;;;;;28.42;45.87;99286.19;5025972;28;20026;-86
2022/06/13 10:54:34;;;;;;;6.85;6.15;;;;;;;28.18;44.78;99254.56;5013677;28;20414;-87
2022/06/13 10:57:03;;;;;;;;;;;;;;;28.09;45.11;99280.78;5013805;28;20072;-87
2022/06/13 10:59:32;;;;;;;6.22;5.25;;;;;;;27.59;46.51;99220.06;5030019;28;19913;-86
2022/06/13 11:02:04;;;;;;;7.70;6.93;;;;;;;27.28;45.55;99203.47;5020389;28;20410;-86
2022/06/13 11:04:33;;;;;;;7.10;5.95;;;;;;;27.65;46.26;99294.03;5032225;28;20048;-87
2022/06/13 11:07:10;;;;;;;6.20;5.60;;;;;;;27.55;46.90;99278.72;5032959;28;20060;-86
2022/06/13 11:09:42;;;;;;;7.50;6.60;;;;;;;27.42;47.23;99282.16;5029563;28;20168;-86
2022/06/13 11:12:30;;;;;;;8.52;7.72;;;;;;;26.96;47.27;99244.06;5014677;28;20025;-86
2022/06/13 11:23:45;;;;;;;8.05;6.65;;;;;;;26.77;48.58;99271.94;5023760;28;20088;-85
2022/06/13 11:28:55;;;;;;;7.80;6.97;;;;;;;26.57;48.34;99254.03;5027201;28;20064;-87
2022/06/13 11:31:25;;;;;;;9.93;8.95;;;;;;;26.89;48.52;99271.50;5018908;28;20061;-85
2022/06/13 11:33:53;;;;;;;9.68;7.15;;;;;;;26.79;48.53;99245.38;5029110;28;20065;-86
2022/06/13 11:36:26;;;;;;;8.20;7.28;;;;;;;26.57;48.31;99191.75;5018147;28;20034;-86
2022/06/13 11:39:02;;;;;;;9.02;6.22;;;;;;;27.16;48.12;99258.16;5024746;28;20029;-86
2022/06/13 11:41:34;;;;;;;7.90;6.32;;;;;;;27.20;48.40;99261.88;5014100;28;20118;-87
2022/06/13 11:44:10;;;;;;;7.18;5.75;;;;;;;26.78;48.10;99208.53;5021972;28;20031;-83
2022/06/13 11:46:41;;;;;;;9.90;7.90;;;;;;;26.64;47.66;99179.75;5029501;28;20036;-85
2022/06/13 11:49:16;;;;;;;9.07;7.68;;;;;;;27.26;47.93;99248.25;5046615;28;20049;-85
2022/06/13 11:51:47;;;;;;;8.45;7.45;;;;;;;27.42;47.82;99252.31;5042481;28;20014;-84
2022/06/13 11:54:40;;;;;;;7.90;6.82;;;;;;;27.49;47.47;99247.31;5032084;28;20037;-85
2022/06/13 11:57:18;;;;;;;10.63;9.18;;;;;;;27.48;48.20;99253.84;5012782;28;20089;-85
2022/06/13 11:59:51;;;;;;;10.40;8.20;;;;;;;27.42;47.87;99241.47;5014995;28;20030;-86
2022/06/13 12:02:49;;;;;;;10.98;6.60;;;;;;;26.82;48.43;99162.72;5026024;28;20064;-86
2022/06/13 12:05:20;;;;;;;9.18;6.20;;;;;;;27.26;47.83;99240.13;5029259;28;20041;-86
2022/06/13 12:08:01;;;;;;;8.13;6.50;;;;;;;26.91;48.14;99190.75;5031840;28;20462;-86
2022/06/13 12:10:40;;;;;;;9.50;6.50;;;;;;;27.17;48.54;99238.06;5033889;28;20088;-86
2022/06/13 12:13:14;;;;;;;8.48;5.95;;;;;;;27.12;48.51;99248.19;5032897;28;20025;-86
2022/06/13 12:15:48;;;;;;;9.55;6.15;;;;;;;26.82;48.56;99206.06;5033316;28;20026;-86
2022/06/13 12:18:16;;;;;;;8.90;6.30;;;;;;;27.03;49.01;99239.09;5013586;28;20024;-86
2022/06/13 12:20:44;;;;;;;8.32;6.70;;;;;;;26.99;49.41;99244.31;5013486;28;20076;-87
2022/06/13 12:23:13;;;;;;;9.18;8.32;;;;;;;26.98;50.11;99231.06;5031568;28;20021;-86
2022/06/13 12:25:56;;;;;;;7.28;6.25;;;;;;;26.89;50.08;99228.16;5050534;28;20029;-85
2022/06/13 12:28:26;;;;;;;9.25;7.75;;;;;;;26.78;50.10;99215.88;5033254;28;20029;-86